sensor_id;sensor_type;location;lat;lon;timestamp;P1;durP1;ratioP1;P2;durP2;ratioP2
11238;SDS011;5677;48.488;13.436;2023-03-01T00:02:18;6.53;;;3.93;;
11238;SDS011;5677;48.488;13.436;2023-03-01T00:04:47;5.37;;;4.20;;
11238;SDS011;5677;48.488;13.436;2023-03-01T00:07:13;7.07;;;4.20;;
11238;SDS011;5677;48.488;13.436;2023-03-01T00:09:40;7.90;;;3.63;;
11238;SDS011;5677;48.488;13.436;2023-03-01T00:12:07;6.90;;;3.83;;
11238;SDS011;5677;48.488;13.436;2023-03-01T00:14:34;10.13;;;4.10;;
11238;SDS011;5677;48.488;13.436;2023-03-01T00:17:02;6.60;;;3.93;;
11238;SDS011;5677;48.488;13.436;2023-03-01T00:19:28;7.03;;;4.40;;
11238;SDS011;5677;48.488;13.436;2023-03-01T00:21:58;19.90;;;4.50;;
11238;SDS011;5677;48.488;13.436;2023-03-01T00:24:25;8.10;;;4.53;;
11238;SDS011;5677;48.488;13.436;2023-03-01T00:26:52;6.63;;;4.07;;
11238;SDS011;5677;48.488;13.436;2023-03-01T00:29:21;5.50;;;4.17;;
11238;SDS011;5677;48.488;13.436;2023-03-01T00:31:47;5.77;;;4.27;;
11238;SDS011;5677;48.488;13.436;2023-03-01T00:34:14;6.40;;;4.17;;
11238;SDS011;5677;48.488;13.436;2023-03-01T00:36:41;6.73;;;4.30;;
11238;SDS011;5677;48.488;13.436;2023-03-01T00:39:10;6.40;;;3.80;;
11238;SDS011;5677;48.488;13.436;2023-03-01T00:41:39;9.37;;;4.53;;
11238;SDS011;5677;48.488;13.436;2023-03-01T00:44:06;6.37;;;4.07;;
11238;SDS011;5677;48.488;13.436;2023-03-01T00:46:33;6.03;;;4.20;;
11238;SDS011;5677;48.488;13.436;2023-03-01T00:49:02;7.30;;;4.47;;
11238;SDS011;5677;48.488;13.436;2023-03-01T00:51:29;8.53;;;4.60;;
11238;SDS011;5677;48.488;13.436;2023-03-01T00:53:58;5.83;;;4.10;;
11238;SDS011;5677;48.488;13.436;2023-03-01T00:56:28;6.53;;;4.40;;
11238;SDS011;5677;48.488;13.436;2023-03-01T00:58:55;5.77;;;4.00;;
11238;SDS011;5677;48.488;13.436;2023-03-01T01:01:23;5.80;;;4.30;;
11238;SDS011;5677;48.488;13.436;2023-03-01T01:03:53;5.83;;;4.53;;
11238;SDS011;5677;48.488;13.436;2023-03-01T01:06:22;11.43;;;4.70;;
11238;SDS011;5677;48.488;13.436;2023-03-01T01:08:50;7.13;;;4.43;;
11238;SDS011;5677;48.488;13.436;2023-03-01T01:11:18;10.33;;;5.13;;
11238;SDS011;5677;48.488;13.436;2023-03-01T01:13:47;6.77;;;4.40;;
11238;SDS011;5677;48.488;13.436;2023-03-01T01:16:15;6.27;;;4.40;;
11238;SDS011;5677;48.488;13.436;2023-03-01T01:18:43;7.70;;;4.50;;
11238;SDS011;5677;48.488;13.436;2023-03-01T01:21:10;6.07;;;4.50;;
11238;SDS011;5677;48.488;13.436;2023-03-01T01:23:39;6.37;;;4.93;;
11238;SDS011;5677;48.488;13.436;2023-03-01T01:26:07;5.93;;;4.00;;
11238;SDS011;5677;48.488;13.436;2023-03-01T01:28:36;6.10;;;4.40;;
11238;SDS011;5677;48.488;13.436;2023-03-01T01:31:05;5.33;;;4.13;;
11238;SDS011;5677;48.488;13.436;2023-03-01T01:33:32;5.87;;;4.10;;
11238;SDS011;5677;48.488;13.436;2023-03-01T01:36:00;7.73;;;4.40;;
11238;SDS011;5677;48.488;13.436;2023-03-01T01:38:26;8.40;;;4.67;;
11238;SDS011;5677;48.488;13.436;2023-03-01T01:40:53;6.47;;;4.43;;
11238;SDS011;5677;48.488;13.436;2023-03-01T01:43:21;4.13;;;3.73;;
11238;SDS011;5677;48.488;13.436;2023-03-01T01:45:49;5.80;;;4.20;;
11238;SDS011;5677;48.488;13.436;2023-03-01T01:48:19;5.73;;;3.87;;
11238;SDS011;5677;48.488;13.436;2023-03-01T01:50:50;5.83;;;4.27;;
11238;SDS011;5677;48.488;13.436;2023-03-01T01:53:21;4.70;;;4.20;;
11238;SDS011;5677;48.488;13.436;2023-03-01T01:55:51;7.63;;;4.20;;
11238;SDS011;5677;48.488;13.436;2023-03-01T01:58:22;5.20;;;4.07;;
11238;SDS011;5677;48.488;13.436;2023-03-01T02:00:50;6.53;;;4.33;;
11238;SDS011;5677;48.488;13.436;2023-03-01T02:03:19;5.27;;;3.77;;
11238;SDS011;5677;48.488;13.436;2023-03-01T02:05:55;5.77;;;4.70;;
11238;SDS011;5677;48.488;13.436;2023-03-01T02:08:27;6.07;;;4.57;;
11238;SDS011;5677;48.488;13.436;2023-03-01T02:10:56;7.00;;;5.67;;
11238;SDS011;5677;48.488;13.436;2023-03-01T02:13:24;9.53;;;4.93;;
11238;SDS011;5677;48.488;13.436;2023-03-01T02:15:52;10.30;;;4.60;;
11238;SDS011;5677;48.488;13.436;2023-03-01T02:18:21;7.13;;;5.00;;
11238;SDS011;5677;48.488;13.436;2023-03-01T02:20:52;5.33;;;4.60;;
11238;SDS011;5677;48.488;13.436;2023-03-01T02:23:25;8.57;;;4.57;;
11238;SDS011;5677;48.488;13.436;2023-03-01T02:25:55;10.23;;;5.13;;
11238;SDS011;5677;48.488;13.436;2023-03-01T02:28:32;6.43;;;4.67;;
11238;SDS011;5677;48.488;13.436;2023-03-01T02:31:00;6.23;;;4.67;;
11238;SDS011;5677;48.488;13.436;2023-03-01T02:33:45;6.87;;;5.07;;
11238;SDS011;5677;48.488;13.436;2023-03-01T02:36:14;7.30;;;4.77;;
11238;SDS011;5677;48.488;13.436;2023-03-01T02:38:44;6.63;;;4.80;;
11238;SDS011;5677;48.488;13.436;2023-03-01T02:41:13;5.90;;;4.90;;
11238;SDS011;5677;48.488;13.436;2023-03-01T02:43:43;5.70;;;4.57;;
11238;SDS011;5677;48.488;13.436;2023-03-01T02:46:13;5.93;;;4.37;;
11238;SDS011;5677;48.488;13.436;2023-03-01T02:48:42;7.73;;;4.73;;
11238;SDS011;5677;48.488;13.436;2023-03-01T02:51:14;5.80;;;4.50;;
11238;SDS011;5677;48.488;13.436;2023-03-01T02:53:48;9.30;;;4.77;;
11238;SDS011;5677;48.488;13.436;2023-03-01T02:56:25;5.80;;;4.17;;
11238;SDS011;5677;48.488;13.436;2023-03-01T02:58:53;8.43;;;4.80;;
11238;SDS011;5677;48.488;13.436;2023-03-01T03:01:25;8.00;;;4.60;;
11238;SDS011;5677;48.488;13.436;2023-03-01T03:04:01;6.77;;;5.20;;
11238;SDS011;5677;48.488;13.436;2023-03-01T03:06:28;5.60;;;4.70;;
11238;SDS011;5677;48.488;13.436;2023-03-01T03:08:55;6.33;;;5.00;;
11238;SDS011;5677;48.488;13.436;2023-03-01T03:11:22;6.00;;;4.93;;
11238;SDS011;5677;48.488;13.436;2023-03-01T03:13:49;5.43;;;4.83;;
11238;SDS011;5677;48.488;13.436;2023-03-01T03:16:18;5.60;;;4.13;;
11238;SDS011;5677;48.488;13.436;2023-03-01T03:18:45;5.67;;;4.73;;
11238;SDS011;5677;48.488;13.436;2023-03-01T03:21:12;6.90;;;4.80;;
11238;SDS011;5677;48.488;13.436;2023-03-01T03:23:40;5.57;;;4.30;;
11238;SDS011;5677;48.488;13.436;2023-03-01T03:26:06;6.23;;;4.30;;
11238;SDS011;5677;48.488;13.436;2023-03-01T03:28:33;5.97;;;4.50;;
11238;SDS011;5677;48.488;13.436;2023-03-01T03:31:05;6.10;;;4.20;;
11238;SDS011;5677;48.488;13.436;2023-03-01T03:33:34;6.30;;;4.50;;
11238;SDS011;5677;48.488;13.436;2023-03-01T03:36:00;6.20;;;4.70;;
11238;SDS011;5677;48.488;13.436;2023-03-01T03:38:27;5.47;;;4.83;;
11238;SDS011;5677;48.488;13.436;2023-03-01T03:40:59;6.73;;;4.87;;
11238;SDS011;5677;48.488;13.436;2023-03-01T03:43:27;6.63;;;4.80;;
11238;SDS011;5677;48.488;13.436;2023-03-01T03:45:55;6.10;;;4.40;;
11238;SDS011;5677;48.488;13.436;2023-03-01T03:48:23;5.13;;;4.60;;
11238;SDS011;5677;48.488;13.436;2023-03-01T03:50:52;7.57;;;4.97;;
11238;SDS011;5677;48.488;13.436;2023-03-01T03:53:21;8.07;;;5.10;;
11238;SDS011;5677;48.488;13.436;2023-03-01T03:55:49;6.97;;;4.60;;
11238;SDS011;5677;48.488;13.436;2023-03-01T03:58:16;5.57;;;4.60;;
11238;SDS011;5677;48.488;13.436;2023-03-01T04:00:45;7.00;;;4.67;;
11238;SDS011;5677;48.488;13.436;2023-03-01T04:03:15;6.03;;;4.93;;
11238;SDS011;5677;48.488;13.436;2023-03-01T04:05:43;6.43;;;4.50;;
11238;SDS011;5677;48.488;13.436;2023-03-01T04:08:12;6.27;;;4.93;;
11238;SDS011;5677;48.488;13.436;2023-03-01T04:10:39;6.60;;;4.50;;
11238;SDS011;5677;48.488;13.436;2023-03-01T04:13:09;6.83;;;4.40;;
11238;SDS011;5677;48.488;13.436;2023-03-01T04:15:38;6.97;;;5.37;;
11238;SDS011;5677;48.488;13.436;2023-03-01T04:18:05;6.47;;;5.03;;
11238;SDS011;5677;48.488;13.436;2023-03-01T04:20:34;6.23;;;4.97;;
11238;SDS011;5677;48.488;13.436;2023-03-01T04:23:02;6.67;;;4.97;;
11238;SDS011;5677;48.488;13.436;2023-03-01T04:25:37;6.77;;;4.83;;
11238;SDS011;5677;48.488;13.436;2023-03-01T04:28:04;4.40;;;4.00;;
11238;SDS011;5677;48.488;13.436;2023-03-01T04:30:31;5.20;;;4.70;;
11238;SDS011;5677;48.488;13.436;2023-03-01T04:33:00;5.13;;;4.50;;
11238;SDS011;5677;48.488;13.436;2023-03-01T04:35:28;5.10;;;4.50;;
11238;SDS011;5677;48.488;13.436;2023-03-01T04:37:55;5.83;;;4.60;;
11238;SDS011;5677;48.488;13.436;2023-03-01T04:40:22;6.50;;;4.50;;
11238;SDS011;5677;48.488;13.436;2023-03-01T04:42:50;4.93;;;4.43;;
11238;SDS011;5677;48.488;13.436;2023-03-01T04:45:17;5.87;;;4.67;;
11238;SDS011;5677;48.488;13.436;2023-03-01T04:47:44;5.63;;;4.83;;
11238;SDS011;5677;48.488;13.436;2023-03-01T04:50:12;6.03;;;4.77;;
11238;SDS011;5677;48.488;13.436;2023-03-01T04:52:41;5.37;;;4.87;;
11238;SDS011;5677;48.488;13.436;2023-03-01T04:55:10;5.67;;;4.80;;
11238;SDS011;5677;48.488;13.436;2023-03-01T04:57:37;5.77;;;5.03;;
11238;SDS011;5677;48.488;13.436;2023-03-01T05:00:06;5.23;;;4.50;;
11238;SDS011;5677;48.488;13.436;2023-03-01T05:02:45;5.40;;;4.47;;
11238;SDS011;5677;48.488;13.436;2023-03-01T05:05:13;6.20;;;4.80;;
11238;SDS011;5677;48.488;13.436;2023-03-01T05:07:41;5.63;;;4.40;;
11238;SDS011;5677;48.488;13.436;2023-03-01T05:10:08;7.03;;;4.73;;
11238;SDS011;5677;48.488;13.436;2023-03-01T05:12:35;6.00;;;4.83;;
11238;SDS011;5677;48.488;13.436;2023-03-01T05:15:02;6.30;;;5.10;;
11238;SDS011;5677;48.488;13.436;2023-03-01T05:17:33;6.37;;;4.93;;
11238;SDS011;5677;48.488;13.436;2023-03-01T05:20:00;6.33;;;4.80;;
11238;SDS011;5677;48.488;13.436;2023-03-01T05:22:29;6.30;;;4.93;;
11238;SDS011;5677;48.488;13.436;2023-03-01T05:24:55;7.07;;;4.83;;
11238;SDS011;5677;48.488;13.436;2023-03-01T05:27:22;6.07;;;5.30;;
11238;SDS011;5677;48.488;13.436;2023-03-01T05:29:49;6.53;;;5.07;;
11238;SDS011;5677;48.488;13.436;2023-03-01T05:32:15;6.73;;;4.77;;
11238;SDS011;5677;48.488;13.436;2023-03-01T05:34:43;6.20;;;4.70;;
11238;SDS011;5677;48.488;13.436;2023-03-01T05:37:11;6.50;;;4.97;;
11238;SDS011;5677;48.488;13.436;2023-03-01T05:39:38;6.87;;;4.60;;
11238;SDS011;5677;48.488;13.436;2023-03-01T05:42:09;5.50;;;4.47;;
11238;SDS011;5677;48.488;13.436;2023-03-01T05:44:37;6.07;;;5.10;;
11238;SDS011;5677;48.488;13.436;2023-03-01T05:47:04;5.90;;;5.10;;
11238;SDS011;5677;48.488;13.436;2023-03-01T05:49:31;6.70;;;4.87;;
11238;SDS011;5677;48.488;13.436;2023-03-01T05:51:59;5.73;;;4.30;;
11238;SDS011;5677;48.488;13.436;2023-03-01T05:54:26;6.83;;;4.83;;
11238;SDS011;5677;48.488;13.436;2023-03-01T05:56:52;6.60;;;5.10;;
11238;SDS011;5677;48.488;13.436;2023-03-01T05:59:19;6.03;;;4.97;;
11238;SDS011;5677;48.488;13.436;2023-03-01T06:01:46;6.17;;;5.17;;
11238;SDS011;5677;48.488;13.436;2023-03-01T06:04:13;6.13;;;5.00;;
11238;SDS011;5677;48.488;13.436;2023-03-01T06:06:40;5.47;;;4.60;;
11238;SDS011;5677;48.488;13.436;2023-03-01T06:09:08;6.43;;;4.90;;
11238;SDS011;5677;48.488;13.436;2023-03-01T06:11:36;6.50;;;4.63;;
11238;SDS011;5677;48.488;13.436;2023-03-01T06:14:03;7.53;;;5.53;;
11238;SDS011;5677;48.488;13.436;2023-03-01T06:16:31;6.43;;;4.80;;
11238;SDS011;5677;48.488;13.436;2023-03-01T06:18:58;5.13;;;4.50;;
11238;SDS011;5677;48.488;13.436;2023-03-01T06:21:24;6.10;;;5.10;;
11238;SDS011;5677;48.488;13.436;2023-03-01T06:23:51;5.93;;;5.03;;
11238;SDS011;5677;48.488;13.436;2023-03-01T06:26:19;5.77;;;4.40;;
11238;SDS011;5677;48.488;13.436;2023-03-01T06:28:46;5.47;;;4.70;;
11238;SDS011;5677;48.488;13.436;2023-03-01T06:31:13;6.57;;;5.10;;
11238;SDS011;5677;48.488;13.436;2023-03-01T06:33:40;6.63;;;4.43;;
11238;SDS011;5677;48.488;13.436;2023-03-01T06:36:07;6.07;;;4.20;;
11238;SDS011;5677;48.488;13.436;2023-03-01T06:38:35;5.77;;;4.37;;
11238;SDS011;5677;48.488;13.436;2023-03-01T06:41:01;11.87;;;4.80;;
11238;SDS011;5677;48.488;13.436;2023-03-01T06:43:30;11.07;;;4.50;;
11238;SDS011;5677;48.488;13.436;2023-03-01T06:45:56;6.27;;;4.67;;
11238;SDS011;5677;48.488;13.436;2023-03-01T06:48:23;10.67;;;4.40;;
11238;SDS011;5677;48.488;13.436;2023-03-01T06:50:50;8.97;;;4.50;;
11238;SDS011;5677;48.488;13.436;2023-03-01T06:53:16;6.97;;;4.40;;
11238;SDS011;5677;48.488;13.436;2023-03-01T06:55:43;8.57;;;4.83;;
11238;SDS011;5677;48.488;13.436;2023-03-01T06:58:10;11.67;;;4.90;;
11238;SDS011;5677;48.488;13.436;2023-03-01T07:00:38;8.93;;;4.70;;
11238;SDS011;5677;48.488;13.436;2023-03-01T07:03:05;5.73;;;4.70;;
11238;SDS011;5677;48.488;13.436;2023-03-01T07:05:33;10.87;;;5.30;;
11238;SDS011;5677;48.488;13.436;2023-03-01T07:07:59;8.37;;;5.00;;
11238;SDS011;5677;48.488;13.436;2023-03-01T07:10:26;8.40;;;4.70;;
11238;SDS011;5677;48.488;13.436;2023-03-01T07:12:54;9.50;;;5.17;;
11238;SDS011;5677;48.488;13.436;2023-03-01T07:15:21;16.17;;;11.73;;
11238;SDS011;5677;48.488;13.436;2023-03-01T07:17:49;14.47;;;9.00;;
11238;SDS011;5677;48.488;13.436;2023-03-01T07:20:16;10.77;;;7.53;;
11238;SDS011;5677;48.488;13.436;2023-03-01T07:22:43;13.43;;;7.90;;
11238;SDS011;5677;48.488;13.436;2023-03-01T07:25:10;9.50;;;7.40;;
11238;SDS011;5677;48.488;13.436;2023-03-01T07:27:37;9.80;;;6.70;;
11238;SDS011;5677;48.488;13.436;2023-03-01T07:30:04;9.33;;;7.13;;
11238;SDS011;5677;48.488;13.436;2023-03-01T07:32:32;9.83;;;6.23;;
11238;SDS011;5677;48.488;13.436;2023-03-01T07:35:00;9.83;;;6.47;;
11238;SDS011;5677;48.488;13.436;2023-03-01T07:37:26;9.07;;;6.17;;
11238;SDS011;5677;48.488;13.436;2023-03-01T07:39:53;10.27;;;5.70;;
11238;SDS011;5677;48.488;13.436;2023-03-01T07:42:20;10.50;;;6.23;;
11238;SDS011;5677;48.488;13.436;2023-03-01T07:44:47;8.70;;;6.03;;
11238;SDS011;5677;48.488;13.436;2023-03-01T07:47:13;9.30;;;5.87;;
11238;SDS011;5677;48.488;13.436;2023-03-01T07:49:40;8.40;;;5.73;;
11238;SDS011;5677;48.488;13.436;2023-03-01T07:52:10;9.23;;;6.03;;
11238;SDS011;5677;48.488;13.436;2023-03-01T07:54:37;15.40;;;8.80;;
11238;SDS011;5677;48.488;13.436;2023-03-01T07:57:04;12.03;;;7.97;;
11238;SDS011;5677;48.488;13.436;2023-03-01T07:59:30;10.77;;;7.37;;
11238;SDS011;5677;48.488;13.436;2023-03-01T08:01:58;12.63;;;8.00;;
11238;SDS011;5677;48.488;13.436;2023-03-01T08:04:25;14.23;;;9.07;;
11238;SDS011;5677;48.488;13.436;2023-03-01T08:06:52;14.17;;;8.93;;
11238;SDS011;5677;48.488;13.436;2023-03-01T08:09:20;12.33;;;7.93;;
11238;SDS011;5677;48.488;13.436;2023-03-01T08:11:47;15.57;;;8.97;;
11238;SDS011;5677;48.488;13.436;2023-03-01T08:14:14;15.77;;;8.70;;
11238;SDS011;5677;48.488;13.436;2023-03-01T08:16:41;14.43;;;7.83;;
11238;SDS011;5677;48.488;13.436;2023-03-01T08:19:09;14.73;;;10.87;;
11238;SDS011;5677;48.488;13.436;2023-03-01T08:21:37;15.03;;;11.90;;
11238;SDS011;5677;48.488;13.436;2023-03-01T08:24:05;17.63;;;13.00;;
11238;SDS011;5677;48.488;13.436;2023-03-01T08:26:34;16.07;;;11.67;;
11238;SDS011;5677;48.488;13.436;2023-03-01T08:29:00;16.73;;;10.97;;
11238;SDS011;5677;48.488;13.436;2023-03-01T08:31:29;17.00;;;10.93;;
11238;SDS011;5677;48.488;13.436;2023-03-01T08:33:58;13.23;;;9.30;;
11238;SDS011;5677;48.488;13.436;2023-03-01T08:36:26;14.07;;;8.97;;
11238;SDS011;5677;48.488;13.436;2023-03-01T08:38:54;12.27;;;9.30;;
11238;SDS011;5677;48.488;13.436;2023-03-01T08:41:21;12.73;;;9.00;;
11238;SDS011;5677;48.488;13.436;2023-03-01T08:43:49;11.63;;;9.23;;
11238;SDS011;5677;48.488;13.436;2023-03-01T08:46:17;12.20;;;9.57;;
11238;SDS011;5677;48.488;13.436;2023-03-01T08:48:44;13.30;;;8.90;;
11238;SDS011;5677;48.488;13.436;2023-03-01T08:51:12;12.27;;;8.67;;
11238;SDS011;5677;48.488;13.436;2023-03-01T08:53:40;12.50;;;8.80;;
11238;SDS011;5677;48.488;13.436;2023-03-01T08:56:08;13.93;;;7.97;;
11238;SDS011;5677;48.488;13.436;2023-03-01T08:58:35;12.07;;;8.60;;
11238;SDS011;5677;48.488;13.436;2023-03-01T09:01:07;14.00;;;7.97;;
11238;SDS011;5677;48.488;13.436;2023-03-01T09:03:34;10.27;;;7.70;;
11238;SDS011;5677;48.488;13.436;2023-03-01T09:06:02;10.23;;;7.33;;
11238;SDS011;5677;48.488;13.436;2023-03-01T09:08:31;10.93;;;7.13;;
11238;SDS011;5677;48.488;13.436;2023-03-01T09:11:00;8.70;;;6.90;;
11238;SDS011;5677;48.488;13.436;2023-03-01T09:13:27;11.17;;;8.37;;
11238;SDS011;5677;48.488;13.436;2023-03-01T09:15:56;14.57;;;8.83;;
11238;SDS011;5677;48.488;13.436;2023-03-01T09:18:24;14.63;;;9.97;;
11238;SDS011;5677;48.488;13.436;2023-03-01T09:20:51;18.30;;;8.77;;
11238;SDS011;5677;48.488;13.436;2023-03-01T09:23:19;13.40;;;9.27;;
11238;SDS011;5677;48.488;13.436;2023-03-01T09:25:46;14.27;;;9.90;;
11238;SDS011;5677;48.488;13.436;2023-03-01T09:28:13;14.87;;;9.70;;
11238;SDS011;5677;48.488;13.436;2023-03-01T09:30:40;12.40;;;9.60;;
11238;SDS011;5677;48.488;13.436;2023-03-01T09:33:06;13.60;;;8.90;;
11238;SDS011;5677;48.488;13.436;2023-03-01T09:35:40;18.33;;;9.20;;
11238;SDS011;5677;48.488;13.436;2023-03-01T09:38:11;13.30;;;8.80;;
11238;SDS011;5677;48.488;13.436;2023-03-01T09:40:41;12.77;;;8.70;;
11238;SDS011;5677;48.488;13.436;2023-03-01T09:43:12;11.20;;;7.93;;
11238;SDS011;5677;48.488;13.436;2023-03-01T09:45:47;15.37;;;9.13;;
11238;SDS011;5677;48.488;13.436;2023-03-01T09:48:17;11.23;;;7.87;;
11238;SDS011;5677;48.488;13.436;2023-03-01T09:50:48;11.97;;;8.67;;
11238;SDS011;5677;48.488;13.436;2023-03-01T09:53:15;12.90;;;8.63;;
11238;SDS011;5677;48.488;13.436;2023-03-01T09:55:44;12.80;;;8.00;;
11238;SDS011;5677;48.488;13.436;2023-03-01T09:58:29;12.47;;;7.70;;
11238;SDS011;5677;48.488;13.436;2023-03-01T10:01:06;13.50;;;8.50;;
11238;SDS011;5677;48.488;13.436;2023-03-01T10:03:50;15.03;;;9.73;;
11238;SDS011;5677;48.488;13.436;2023-03-01T10:06:28;12.07;;;7.47;;
11238;SDS011;5677;48.488;13.436;2023-03-01T10:08:55;12.03;;;7.83;;
11238;SDS011;5677;48.488;13.436;2023-03-01T10:11:25;10.70;;;7.13;;
11238;SDS011;5677;48.488;13.436;2023-03-01T10:13:55;15.60;;;7.33;;
11238;SDS011;5677;48.488;13.436;2023-03-01T10:16:28;10.43;;;7.20;;
11238;SDS011;5677;48.488;13.436;2023-03-01T10:19:03;10.80;;;7.20;;
11238;SDS011;5677;48.488;13.436;2023-03-01T10:21:38;9.37;;;6.47;;
11238;SDS011;5677;48.488;13.436;2023-03-01T10:24:11;11.13;;;7.03;;
11238;SDS011;5677;48.488;13.436;2023-03-01T10:26:43;12.17;;;7.90;;
11238;SDS011;5677;48.488;13.436;2023-03-01T10:29:14;9.27;;;6.97;;
11238;SDS011;5677;48.488;13.436;2023-03-01T10:31:42;11.93;;;8.13;;
11238;SDS011;5677;48.488;13.436;2023-03-01T10:34:11;10.33;;;7.20;;
11238;SDS011;5677;48.488;13.436;2023-03-01T10:36:41;10.77;;;7.67;;
11238;SDS011;5677;48.488;13.436;2023-03-01T10:39:13;10.07;;;7.67;;
11238;SDS011;5677;48.488;13.436;2023-03-01T10:41:49;14.13;;;7.60;;
11238;SDS011;5677;48.488;13.436;2023-03-01T10:47:12;11.03;;;7.37;;
11238;SDS011;5677;48.488;13.436;2023-03-01T10:49:51;11.73;;;7.33;;
11238;SDS011;5677;48.488;13.436;2023-03-01T10:52:21;9.80;;;7.00;;
11238;SDS011;5677;48.488;13.436;2023-03-01T10:54:53;10.03;;;7.13;;
11238;SDS011;5677;48.488;13.436;2023-03-01T10:57:27;10.00;;;6.80;;
11238;SDS011;5677;48.488;13.436;2023-03-01T11:00:09;9.40;;;6.90;;
11238;SDS011;5677;48.488;13.436;2023-03-01T11:03:00;10.37;;;7.03;;
11238;SDS011;5677;48.488;13.436;2023-03-01T11:05:29;10.17;;;6.90;;
11238;SDS011;5677;48.488;13.436;2023-03-01T11:08:00;11.40;;;6.90;;
11238;SDS011;5677;48.488;13.436;2023-03-01T11:10:28;9.13;;;6.77;;
11238;SDS011;5677;48.488;13.436;2023-03-01T11:13:06;10.43;;;7.20;;
11238;SDS011;5677;48.488;13.436;2023-03-01T11:15:34;10.97;;;6.77;;
11238;SDS011;5677;48.488;13.436;2023-03-01T11:18:01;9.50;;;6.83;;
11238;SDS011;5677;48.488;13.436;2023-03-01T11:20:29;12.13;;;6.87;;
11238;SDS011;5677;48.488;13.436;2023-03-01T11:23:01;11.13;;;6.83;;
11238;SDS011;5677;48.488;13.436;2023-03-01T11:25:32;10.40;;;7.60;;
11238;SDS011;5677;48.488;13.436;2023-03-01T11:28:03;9.87;;;6.03;;
11238;SDS011;5677;48.488;13.436;2023-03-01T11:30:34;10.37;;;6.90;;
11238;SDS011;5677;48.488;13.436;2023-03-01T11:33:08;11.20;;;7.03;;
11238;SDS011;5677;48.488;13.436;2023-03-01T11:35:43;10.63;;;6.97;;
11238;SDS011;5677;48.488;13.436;2023-03-01T11:38:18;11.10;;;6.87;;
11238;SDS011;5677;48.488;13.436;2023-03-01T11:40:49;9.27;;;6.43;;
11238;SDS011;5677;48.488;13.436;2023-03-01T11:43:20;7.90;;;6.07;;
11238;SDS011;5677;48.488;13.436;2023-03-01T11:45:58;11.50;;;6.77;;
11238;SDS011;5677;48.488;13.436;2023-03-01T11:48:51;8.73;;;6.33;;
11238;SDS011;5677;48.488;13.436;2023-03-01T11:51:29;8.33;;;6.07;;
11238;SDS011;5677;48.488;13.436;2023-03-01T11:54:13;8.70;;;5.77;;
11238;SDS011;5677;48.488;13.436;2023-03-01T11:56:48;10.00;;;6.07;;
11238;SDS011;5677;48.488;13.436;2023-03-01T12:05:35;7.80;;;5.10;;
11238;SDS011;5677;48.488;13.436;2023-03-01T12:08:29;6.73;;;4.93;;
11238;SDS011;5677;48.488;13.436;2023-03-01T12:11:03;6.53;;;4.80;;
11238;SDS011;5677;48.488;13.436;2023-03-01T12:16:28;9.00;;;5.73;;
11238;SDS011;5677;48.488;13.436;2023-03-01T12:19:08;8.33;;;5.50;;
11238;SDS011;5677;48.488;13.436;2023-03-01T12:21:57;7.40;;;5.20;;
11238;SDS011;5677;48.488;13.436;2023-03-01T12:24:46;6.97;;;5.00;;
11238;SDS011;5677;48.488;13.436;2023-03-01T12:27:42;7.90;;;4.97;;
11238;SDS011;5677;48.488;13.436;2023-03-01T12:30:25;5.63;;;4.87;;
11238;SDS011;5677;48.488;13.436;2023-03-01T12:33:04;6.80;;;5.20;;
11238;SDS011;5677;48.488;13.436;2023-03-01T12:38:48;5.80;;;4.37;;
11238;SDS011;5677;48.488;13.436;2023-03-01T12:41:24;6.67;;;4.80;;
11238;SDS011;5677;48.488;13.436;2023-03-01T12:44:07;4.73;;;4.20;;
11238;SDS011;5677;48.488;13.436;2023-03-01T12:46:45;5.93;;;4.57;;
11238;SDS011;5677;48.488;13.436;2023-03-01T12:49:20;5.67;;;4.10;;
11238;SDS011;5677;48.488;13.436;2023-03-01T12:51:53;5.47;;;3.97;;
11238;SDS011;5677;48.488;13.436;2023-03-01T12:54:26;6.27;;;3.73;;
11238;SDS011;5677;48.488;13.436;2023-03-01T12:56:54;5.13;;;3.73;;
11238;SDS011;5677;48.488;13.436;2023-03-01T12:59:26;6.37;;;4.63;;
11238;SDS011;5677;48.488;13.436;2023-03-01T13:02:02;9.40;;;4.13;;
11238;SDS011;5677;48.488;13.436;2023-03-01T13:04:38;6.03;;;4.27;;
11238;SDS011;5677;48.488;13.436;2023-03-01T13:07:21;6.07;;;3.73;;
11238;SDS011;5677;48.488;13.436;2023-03-01T13:09:55;8.13;;;3.93;;
11238;SDS011;5677;48.488;13.436;2023-03-01T13:12:57;5.77;;;3.90;;
11238;SDS011;5677;48.488;13.436;2023-03-01T13:15:34;7.33;;;4.37;;
11238;SDS011;5677;48.488;13.436;2023-03-01T13:18:11;5.90;;;3.63;;
11238;SDS011;5677;48.488;13.436;2023-03-01T13:20:55;6.93;;;4.03;;
11238;SDS011;5677;48.488;13.436;2023-03-01T13:23:24;5.47;;;3.83;;
11238;SDS011;5677;48.488;13.436;2023-03-01T13:26:03;6.57;;;4.00;;
11238;SDS011;5677;48.488;13.436;2023-03-01T13:28:55;5.80;;;4.43;;
11238;SDS011;5677;48.488;13.436;2023-03-01T13:34:47;5.50;;;4.10;;
11238;SDS011;5677;48.488;13.436;2023-03-01T13:37:20;8.40;;;4.43;;
11238;SDS011;5677;48.488;13.436;2023-03-01T13:39:56;6.67;;;4.83;;
11238;SDS011;5677;48.488;13.436;2023-03-01T13:42:37;6.77;;;4.07;;
11238;SDS011;5677;48.488;13.436;2023-03-01T13:48:02;5.57;;;4.10;;
11238;SDS011;5677;48.488;13.436;2023-03-01T13:50:37;9.17;;;4.93;;
11238;SDS011;5677;48.488;13.436;2023-03-01T13:53:11;6.27;;;4.73;;
11238;SDS011;5677;48.488;13.436;2023-03-01T13:55:44;6.33;;;4.80;;
11238;SDS011;5677;48.488;13.436;2023-03-01T13:58:15;6.93;;;4.90;;
11238;SDS011;5677;48.488;13.436;2023-03-01T14:00:45;5.77;;;4.27;;
11238;SDS011;5677;48.488;13.436;2023-03-01T14:03:15;7.30;;;3.57;;
11238;SDS011;5677;48.488;13.436;2023-03-01T14:05:43;5.30;;;3.70;;
11238;SDS011;5677;48.488;13.436;2023-03-01T14:08:23;6.20;;;3.60;;
11238;SDS011;5677;48.488;13.436;2023-03-01T14:10:53;7.20;;;3.67;;
11238;SDS011;5677;48.488;13.436;2023-03-01T14:13:34;5.43;;;3.83;;
11238;SDS011;5677;48.488;13.436;2023-03-01T14:16:15;6.20;;;3.43;;
11238;SDS011;5677;48.488;13.436;2023-03-01T14:18:54;6.63;;;3.50;;
11238;SDS011;5677;48.488;13.436;2023-03-01T14:21:29;6.53;;;3.57;;
11238;SDS011;5677;48.488;13.436;2023-03-01T14:23:56;4.67;;;3.60;;
11238;SDS011;5677;48.488;13.436;2023-03-01T14:26:24;4.07;;;3.33;;
11238;SDS011;5677;48.488;13.436;2023-03-01T14:28:51;5.30;;;3.90;;
11238;SDS011;5677;48.488;13.436;2023-03-01T14:31:31;4.10;;;3.30;;
11238;SDS011;5677;48.488;13.436;2023-03-01T14:34:05;5.87;;;3.90;;
11238;SDS011;5677;48.488;13.436;2023-03-01T14:36:33;3.70;;;3.23;;
11238;SDS011;5677;48.488;13.436;2023-03-01T14:39:00;5.33;;;4.07;;
11238;SDS011;5677;48.488;13.436;2023-03-01T14:41:31;6.43;;;3.67;;
11238;SDS011;5677;48.488;13.436;2023-03-01T14:44:01;5.43;;;3.27;;
11238;SDS011;5677;48.488;13.436;2023-03-01T14:46:31;6.93;;;3.90;;
11238;SDS011;5677;48.488;13.436;2023-03-01T14:49:01;4.10;;;3.40;;
11238;SDS011;5677;48.488;13.436;2023-03-01T14:51:31;5.03;;;3.77;;
11238;SDS011;5677;48.488;13.436;2023-03-01T14:54:03;7.77;;;3.63;;
11238;SDS011;5677;48.488;13.436;2023-03-01T14:56:42;6.20;;;3.70;;
11238;SDS011;5677;48.488;13.436;2023-03-01T14:59:10;4.83;;;3.33;;
11238;SDS011;5677;48.488;13.436;2023-03-01T15:01:37;6.00;;;3.67;;
11238;SDS011;5677;48.488;13.436;2023-03-01T15:04:06;5.70;;;3.87;;
11238;SDS011;5677;48.488;13.436;2023-03-01T15:06:37;4.40;;;3.20;;
11238;SDS011;5677;48.488;13.436;2023-03-01T15:09:04;4.73;;;3.23;;
11238;SDS011;5677;48.488;13.436;2023-03-01T15:11:33;3.57;;;3.17;;
11238;SDS011;5677;48.488;13.436;2023-03-01T15:14:01;4.70;;;3.67;;
11238;SDS011;5677;48.488;13.436;2023-03-01T15:16:53;5.17;;;3.53;;
11238;SDS011;5677;48.488;13.436;2023-03-01T15:19:21;5.43;;;3.30;;
11238;SDS011;5677;48.488;13.436;2023-03-01T15:21:50;4.23;;;3.30;;
11238;SDS011;5677;48.488;13.436;2023-03-01T15:24:17;4.57;;;3.63;;